sensor_id;sensor_type;location;lat;lon;timestamp;P1;durP1;ratioP1;P2;durP2;ratioP2
45540;SDS011;31265;49.680;8.608;2023-08-08T00:00:08;1.50;;;0.65;;
45540;SDS011;31265;49.680;8.608;2023-08-08T00:02:39;2.45;;;0.80;;
45540;SDS011;31265;49.680;8.608;2023-08-08T00:05:08;1.58;;;0.70;;
45540;SDS011;31265;49.680;8.608;2023-08-08T00:07:41;2.38;;;0.82;;
45540;SDS011;31265;49.680;8.608;2023-08-08T00:10:09;1.23;;;0.93;;
45540;SDS011;31265;49.680;8.608;2023-08-08T00:12:37;3.80;;;0.85;;
45540;SDS011;31265;49.680;8.608;2023-08-08T00:15:06;2.85;;;1.27;;
45540;SDS011;31265;49.680;8.608;2023-08-08T00:17:35;1.65;;;0.75;;
45540;SDS011;31265;49.680;8.608;2023-08-08T00:20:04;2.80;;;0.70;;
45540;SDS011;31265;49.680;8.608;2023-08-08T00:22:34;1.23;;;0.47;;
45540;SDS011;31265;49.680;8.608;2023-08-08T00:25:04;4.20;;;0.80;;
45540;SDS011;31265;49.680;8.608;2023-08-08T00:27:32;1.67;;;0.75;;
45540;SDS011;31265;49.680;8.608;2023-08-08T00:30:00;1.80;;;0.75;;
45540;SDS011;31265;49.680;8.608;2023-08-08T00:32:29;1.88;;;0.80;;
45540;SDS011;31265;49.680;8.608;2023-08-08T00:34:57;3.05;;;0.80;;
45540;SDS011;31265;49.680;8.608;2023-08-08T00:37:26;2.92;;;1.05;;
45540;SDS011;31265;49.680;8.608;2023-08-08T00:39:54;3.17;;;1.20;;
45540;SDS011;31265;49.680;8.608;2023-08-08T00:42:24;0.77;;;0.40;;
45540;SDS011;31265;49.680;8.608;2023-08-08T00:47:20;1.40;;;0.63;;
45540;SDS011;31265;49.680;8.608;2023-08-08T00:49:49;1.67;;;0.80;;
45540;SDS011;31265;49.680;8.608;2023-08-08T00:52:17;1.98;;;0.90;;
45540;SDS011;31265;49.680;8.608;2023-08-08T00:54:46;1.58;;;0.75;;
45540;SDS011;31265;49.680;8.608;2023-08-08T00:57:14;1.40;;;0.63;;
45540;SDS011;31265;49.680;8.608;2023-08-08T00:59:44;1.38;;;0.60;;
45540;SDS011;31265;49.680;8.608;2023-08-08T01:02:14;1.98;;;0.73;;
45540;SDS011;31265;49.680;8.608;2023-08-08T01:04:43;2.30;;;1.00;;
45540;SDS011;31265;49.680;8.608;2023-08-08T01:07:13;2.00;;;0.60;;
45540;SDS011;31265;49.680;8.608;2023-08-08T01:09:51;2.88;;;0.80;;
45540;SDS011;31265;49.680;8.608;2023-08-08T01:12:23;2.88;;;0.93;;
45540;SDS011;31265;49.680;8.608;2023-08-08T01:14:58;2.13;;;1.02;;
45540;SDS011;31265;49.680;8.608;2023-08-08T01:17:27;2.60;;;1.00;;
45540;SDS011;31265;49.680;8.608;2023-08-08T01:19:55;1.77;;;0.70;;
45540;SDS011;31265;49.680;8.608;2023-08-08T01:22:24;3.15;;;0.93;;
45540;SDS011;31265;49.680;8.608;2023-08-08T01:24:59;2.20;;;0.90;;
45540;SDS011;31265;49.680;8.608;2023-08-08T01:27:28;0.68;;;0.40;;
45540;SDS011;31265;49.680;8.608;2023-08-08T01:29:57;1.90;;;0.65;;
45540;SDS011;31265;49.680;8.608;2023-08-08T01:32:25;3.00;;;0.77;;
45540;SDS011;31265;49.680;8.608;2023-08-08T01:34:53;1.73;;;0.82;;
45540;SDS011;31265;49.680;8.608;2023-08-08T01:37:22;1.58;;;0.80;;
45540;SDS011;31265;49.680;8.608;2023-08-08T01:39:57;2.55;;;0.88;;
45540;SDS011;31265;49.680;8.608;2023-08-08T01:42:28;1.48;;;0.75;;
45540;SDS011;31265;49.680;8.608;2023-08-08T01:44:57;2.38;;;1.00;;
45540;SDS011;31265;49.680;8.608;2023-08-08T01:47:27;1.92;;;0.70;;
45540;SDS011;31265;49.680;8.608;2023-08-08T01:52:25;1.40;;;0.70;;
45540;SDS011;31265;49.680;8.608;2023-08-08T01:54:55;1.67;;;0.55;;
45540;SDS011;31265;49.680;8.608;2023-08-08T01:57:23;1.95;;;0.80;;
45540;SDS011;31265;49.680;8.608;2023-08-08T01:59:53;1.92;;;0.80;;
45540;SDS011;31265;49.680;8.608;2023-08-08T02:04:49;1.85;;;0.63;;
45540;SDS011;31265;49.680;8.608;2023-08-08T02:07:18;1.42;;;0.57;;
45540;SDS011;31265;49.680;8.608;2023-08-08T02:09:47;5.55;;;0.90;;
45540;SDS011;31265;49.680;8.608;2023-08-08T02:12:17;2.33;;;0.90;;
45540;SDS011;31265;49.680;8.608;2023-08-08T02:14:45;2.85;;;0.85;;
45540;SDS011;31265;49.680;8.608;2023-08-08T02:17:15;1.52;;;0.75;;
45540;SDS011;31265;49.680;8.608;2023-08-08T02:19:44;1.67;;;0.95;;
45540;SDS011;31265;49.680;8.608;2023-08-08T02:22:13;1.30;;;0.70;;
45540;SDS011;31265;49.680;8.608;2023-08-08T02:24:41;4.13;;;0.65;;
45540;SDS011;31265;49.680;8.608;2023-08-08T02:27:12;6.85;;;1.33;;
45540;SDS011;31265;49.680;8.608;2023-08-08T02:29:41;2.72;;;0.85;;
45540;SDS011;31265;49.680;8.608;2023-08-08T02:32:09;2.47;;;1.02;;
45540;SDS011;31265;49.680;8.608;2023-08-08T02:34:39;1.70;;;0.93;;
45540;SDS011;31265;49.680;8.608;2023-08-08T02:37:08;2.53;;;0.75;;
45540;SDS011;31265;49.680;8.608;2023-08-08T02:39:39;2.58;;;0.70;;
45540;SDS011;31265;49.680;8.608;2023-08-08T02:42:09;3.97;;;0.98;;
45540;SDS011;31265;49.680;8.608;2023-08-08T02:44:38;2.90;;;0.77;;
45540;SDS011;31265;49.680;8.608;2023-08-08T02:47:06;1.35;;;0.70;;
45540;SDS011;31265;49.680;8.608;2023-08-08T02:49:41;2.00;;;1.27;;
45540;SDS011;31265;49.680;8.608;2023-08-08T02:52:11;1.90;;;0.70;;
45540;SDS011;31265;49.680;8.608;2023-08-08T02:54:40;3.47;;;1.35;;
45540;SDS011;31265;49.680;8.608;2023-08-08T02:57:08;2.70;;;1.42;;
45540;SDS011;31265;49.680;8.608;2023-08-08T02:59:37;3.40;;;0.70;;
45540;SDS011;31265;49.680;8.608;2023-08-08T03:02:06;3.08;;;1.10;;
45540;SDS011;31265;49.680;8.608;2023-08-08T03:04:37;1.80;;;0.73;;
45540;SDS011;31265;49.680;8.608;2023-08-08T03:07:08;1.17;;;0.70;;
45540;SDS011;31265;49.680;8.608;2023-08-08T03:09:37;1.58;;;0.70;;
45540;SDS011;31265;49.680;8.608;2023-08-08T03:12:08;3.22;;;1.00;;
45540;SDS011;31265;49.680;8.608;2023-08-08T03:14:38;2.28;;;0.75;;
45540;SDS011;31265;49.680;8.608;2023-08-08T03:17:07;2.75;;;0.45;;
45540;SDS011;31265;49.680;8.608;2023-08-08T03:19:38;1.33;;;0.55;;
45540;SDS011;31265;49.680;8.608;2023-08-08T03:22:06;1.80;;;0.80;;
45540;SDS011;31265;49.680;8.608;2023-08-08T03:24:38;1.58;;;0.70;;
45540;SDS011;31265;49.680;8.608;2023-08-08T03:29:36;2.47;;;1.33;;
45540;SDS011;31265;49.680;8.608;2023-08-08T03:32:05;3.05;;;1.25;;
45540;SDS011;31265;49.680;8.608;2023-08-08T03:37:06;1.60;;;0.80;;
45540;SDS011;31265;49.680;8.608;2023-08-08T03:39:35;2.63;;;0.88;;
45540;SDS011;31265;49.680;8.608;2023-08-08T03:42:06;1.90;;;0.70;;
45540;SDS011;31265;49.680;8.608;2023-08-08T03:44:35;1.35;;;0.63;;
45540;SDS011;31265;49.680;8.608;2023-08-08T03:47:03;5.25;;;0.90;;
45540;SDS011;31265;49.680;8.608;2023-08-08T03:49:46;2.47;;;0.77;;
45540;SDS011;31265;49.680;8.608;2023-08-08T03:52:14;1.95;;;0.90;;
45540;SDS011;31265;49.680;8.608;2023-08-08T03:54:46;1.83;;;0.77;;
45540;SDS011;31265;49.680;8.608;2023-08-08T03:57:15;1.63;;;0.80;;
45540;SDS011;31265;49.680;8.608;2023-08-08T03:59:44;3.13;;;0.80;;
45540;SDS011;31265;49.680;8.608;2023-08-08T04:02:15;4.45;;;1.17;;
45540;SDS011;31265;49.680;8.608;2023-08-08T04:04:43;3.38;;;0.98;;
45540;SDS011;31265;49.680;8.608;2023-08-08T04:07:12;4.43;;;1.00;;
45540;SDS011;31265;49.680;8.608;2023-08-08T04:09:40;7.05;;;1.25;;
45540;SDS011;31265;49.680;8.608;2023-08-08T04:12:09;2.50;;;0.80;;
45540;SDS011;31265;49.680;8.608;2023-08-08T04:14:39;2.28;;;0.90;;
45540;SDS011;31265;49.680;8.608;2023-08-08T04:17:09;1.98;;;0.88;;
45540;SDS011;31265;49.680;8.608;2023-08-08T04:19:38;1.58;;;0.65;;
45540;SDS011;31265;49.680;8.608;2023-08-08T04:22:06;2.22;;;0.70;;
45540;SDS011;31265;49.680;8.608;2023-08-08T04:24:36;1.60;;;0.73;;
45540;SDS011;31265;49.680;8.608;2023-08-08T04:27:05;1.60;;;0.60;;
45540;SDS011;31265;49.680;8.608;2023-08-08T04:29:33;1.92;;;0.70;;
45540;SDS011;31265;49.680;8.608;2023-08-08T04:32:04;1.20;;;0.47;;
45540;SDS011;31265;49.680;8.608;2023-08-08T04:34:32;1.75;;;0.68;;
45540;SDS011;31265;49.680;8.608;2023-08-08T04:37:01;2.70;;;1.13;;
45540;SDS011;31265;49.680;8.608;2023-08-08T04:39:29;3.20;;;1.23;;
45540;SDS011;31265;49.680;8.608;2023-08-08T04:41:58;4.53;;;1.20;;
45540;SDS011;31265;49.680;8.608;2023-08-08T04:44:26;0.90;;;0.40;;
45540;SDS011;31265;49.680;8.608;2023-08-08T04:46:55;3.38;;;1.45;;
45540;SDS011;31265;49.680;8.608;2023-08-08T04:49:25;3.67;;;1.00;;
45540;SDS011;31265;49.680;8.608;2023-08-08T04:51:55;1.63;;;0.60;;
45540;SDS011;31265;49.680;8.608;2023-08-08T04:54:24;2.20;;;1.00;;
45540;SDS011;31265;49.680;8.608;2023-08-08T04:56:52;5.10;;;1.45;;
45540;SDS011;31265;49.680;8.608;2023-08-08T04:59:21;3.08;;;0.90;;
45540;SDS011;31265;49.680;8.608;2023-08-08T05:01:49;1.48;;;0.80;;
45540;SDS011;31265;49.680;8.608;2023-08-08T05:04:17;1.35;;;0.75;;
45540;SDS011;31265;49.680;8.608;2023-08-08T05:06:47;2.92;;;0.98;;
45540;SDS011;31265;49.680;8.608;2023-08-08T05:09:16;5.32;;;1.73;;
45540;SDS011;31265;49.680;8.608;2023-08-08T05:11:44;3.88;;;1.30;;
45540;SDS011;31265;49.680;8.608;2023-08-08T05:14:13;3.45;;;0.80;;
45540;SDS011;31265;49.680;8.608;2023-08-08T05:16:42;5.30;;;1.10;;
45540;SDS011;31265;49.680;8.608;2023-08-08T05:19:10;2.40;;;1.00;;
45540;SDS011;31265;49.680;8.608;2023-08-08T05:21:38;3.90;;;1.35;;
45540;SDS011;31265;49.680;8.608;2023-08-08T05:24:08;2.25;;;1.10;;
45540;SDS011;31265;49.680;8.608;2023-08-08T05:26:38;3.58;;;1.15;;
45540;SDS011;31265;49.680;8.608;2023-08-08T05:29:13;1.40;;;0.70;;
45540;SDS011;31265;49.680;8.608;2023-08-08T05:31:45;4.90;;;1.40;;
45540;SDS011;31265;49.680;8.608;2023-08-08T05:34:16;5.03;;;1.35;;
45540;SDS011;31265;49.680;8.608;2023-08-08T05:36:47;3.17;;;0.95;;
45540;SDS011;31265;49.680;8.608;2023-08-08T05:39:37;3.08;;;1.45;;
45540;SDS011;31265;49.680;8.608;2023-08-08T05:42:06;2.30;;;0.90;;
45540;SDS011;31265;49.680;8.608;2023-08-08T05:44:35;2.33;;;0.82;;
45540;SDS011;31265;49.680;8.608;2023-08-08T05:47:03;2.15;;;1.02;;
45540;SDS011;31265;49.680;8.608;2023-08-08T05:49:32;10.70;;;1.40;;
45540;SDS011;31265;49.680;8.608;2023-08-08T05:52:00;4.30;;;1.10;;
45540;SDS011;31265;49.680;8.608;2023-08-08T05:54:29;3.10;;;1.10;;
45540;SDS011;31265;49.680;8.608;2023-08-08T05:56:59;6.93;;;2.00;;
45540;SDS011;31265;49.680;8.608;2023-08-08T06:01:56;5.45;;;1.27;;
45540;SDS011;31265;49.680;8.608;2023-08-08T06:04:26;3.83;;;1.00;;
45540;SDS011;31265;49.680;8.608;2023-08-08T06:06:54;2.70;;;1.10;;
45540;SDS011;31265;49.680;8.608;2023-08-08T06:09:26;2.28;;;1.10;;
45540;SDS011;31265;49.680;8.608;2023-08-08T06:11:54;2.33;;;1.13;;
45540;SDS011;31265;49.680;8.608;2023-08-08T06:14:24;1.88;;;0.80;;
45540;SDS011;31265;49.680;8.608;2023-08-08T06:19:21;4.72;;;1.13;;
45540;SDS011;31265;49.680;8.608;2023-08-08T06:21:49;4.60;;;1.00;;
45540;SDS011;31265;49.680;8.608;2023-08-08T06:24:18;5.75;;;1.80;;
45540;SDS011;31265;49.680;8.608;2023-08-08T06:26:46;1.90;;;0.80;;
45540;SDS011;31265;49.680;8.608;2023-08-08T06:29:14;2.58;;;0.82;;
45540;SDS011;31265;49.680;8.608;2023-08-08T06:31:44;4.53;;;0.85;;
45540;SDS011;31265;49.680;8.608;2023-08-08T06:34:12;3.20;;;1.00;;
45540;SDS011;31265;49.680;8.608;2023-08-08T06:36:42;3.67;;;1.00;;
45540;SDS011;31265;49.680;8.608;2023-08-08T06:39:10;3.80;;;1.05;;
45540;SDS011;31265;49.680;8.608;2023-08-08T06:41:39;1.60;;;0.68;;
45540;SDS011;31265;49.680;8.608;2023-08-08T06:44:09;2.75;;;0.98;;
45540;SDS011;31265;49.680;8.608;2023-08-08T06:46:37;5.68;;;1.00;;
45540;SDS011;31265;49.680;8.608;2023-08-08T06:49:07;1.83;;;0.77;;
45540;SDS011;31265;49.680;8.608;2023-08-08T06:51:38;1.98;;;0.82;;
45540;SDS011;31265;49.680;8.608;2023-08-08T06:54:06;3.17;;;1.08;;
45540;SDS011;31265;49.680;8.608;2023-08-08T06:56:34;3.00;;;0.93;;
45540;SDS011;31265;49.680;8.608;2023-08-08T06:59:06;3.97;;;0.93;;
45540;SDS011;31265;49.680;8.608;2023-08-08T07:01:34;6.32;;;1.20;;
45540;SDS011;31265;49.680;8.608;2023-08-08T07:04:03;1.30;;;0.55;;
45540;SDS011;31265;49.680;8.608;2023-08-08T07:06:33;8.27;;;1.40;;
45540;SDS011;31265;49.680;8.608;2023-08-08T07:09:03;2.30;;;0.98;;
45540;SDS011;31265;49.680;8.608;2023-08-08T07:14:01;2.42;;;1.05;;
45540;SDS011;31265;49.680;8.608;2023-08-08T07:16:29;3.75;;;1.15;;
45540;SDS011;31265;49.680;8.608;2023-08-08T07:18:58;2.42;;;0.68;;
45540;SDS011;31265;49.680;8.608;2023-08-08T07:23:58;6.10;;;0.93;;
45540;SDS011;31265;49.680;8.608;2023-08-08T07:26:30;4.80;;;1.05;;
45540;SDS011;31265;49.680;8.608;2023-08-08T07:31:28;5.05;;;1.08;;
45540;SDS011;31265;49.680;8.608;2023-08-08T07:33:56;3.40;;;0.95;;
45540;SDS011;31265;49.680;8.608;2023-08-08T07:36:25;3.20;;;1.63;;
45540;SDS011;31265;49.680;8.608;2023-08-08T07:38:53;3.95;;;1.63;;
45540;SDS011;31265;49.680;8.608;2023-08-08T07:41:29;3.45;;;1.08;;
45540;SDS011;31265;49.680;8.608;2023-08-08T07:43:58;1.70;;;0.88;;
45540;SDS011;31265;49.680;8.608;2023-08-08T07:46:29;1.63;;;0.63;;
45540;SDS011;31265;49.680;8.608;2023-08-08T07:48:59;1.75;;;0.50;;
45540;SDS011;31265;49.680;8.608;2023-08-08T07:51:31;1.48;;;0.43;;
45540;SDS011;31265;49.680;8.608;2023-08-08T07:54:00;3.28;;;0.50;;
45540;SDS011;31265;49.680;8.608;2023-08-08T07:56:29;1.85;;;0.55;;
45540;SDS011;31265;49.680;8.608;2023-08-08T07:58:58;1.27;;;0.60;;
45540;SDS011;31265;49.680;8.608;2023-08-08T08:01:26;2.03;;;0.50;;
45540;SDS011;31265;49.680;8.608;2023-08-08T08:03:55;1.27;;;0.38;;
45540;SDS011;31265;49.680;8.608;2023-08-08T08:06:23;2.17;;;0.40;;
45540;SDS011;31265;49.680;8.608;2023-08-08T08:08:52;1.17;;;0.35;;
45540;SDS011;31265;49.680;8.608;2023-08-08T08:11:23;1.08;;;0.38;;
45540;SDS011;31265;49.680;8.608;2023-08-08T08:13:53;0.98;;;0.30;;
45540;SDS011;31265;49.680;8.608;2023-08-08T08:16:23;1.15;;;0.30;;
45540;SDS011;31265;49.680;8.608;2023-08-08T08:18:52;1.98;;;0.60;;
45540;SDS011;31265;49.680;8.608;2023-08-08T08:21:20;1.30;;;0.43;;
45540;SDS011;31265;49.680;8.608;2023-08-08T08:23:49;3.63;;;0.60;;
45540;SDS011;31265;49.680;8.608;2023-08-08T08:26:18;0.30;;;0.20;;
45540;SDS011;31265;49.680;8.608;2023-08-08T08:28:49;1.27;;;0.32;;
45540;SDS011;31265;49.680;8.608;2023-08-08T08:31:19;0.43;;;0.20;;
45540;SDS011;31265;49.680;8.608;2023-08-08T08:33:47;0.50;;;0.30;;
45540;SDS011;31265;49.680;8.608;2023-08-08T08:36:16;2.83;;;0.67;;
45540;SDS011;31265;49.680;8.608;2023-08-08T08:38:44;1.98;;;0.35;;
45540;SDS011;31265;49.680;8.608;2023-08-08T08:41:15;0.52;;;0.20;;
45540;SDS011;31265;49.680;8.608;2023-08-08T08:43:46;0.68;;;0.30;;
45540;SDS011;31265;49.680;8.608;2023-08-08T08:46:16;0.47;;;0.17;;
45540;SDS011;31265;49.680;8.608;2023-08-08T08:48:50;3.15;;;0.43;;
45540;SDS011;31265;49.680;8.608;2023-08-08T08:53:48;0.88;;;0.28;;
45540;SDS011;31265;49.680;8.608;2023-08-08T08:56:16;6.07;;;0.20;;
45540;SDS011;31265;49.680;8.608;2023-08-08T08:58:46;4.60;;;0.50;;
45540;SDS011;31265;49.680;8.608;2023-08-08T09:01:14;0.70;;;0.30;;
45540;SDS011;31265;49.680;8.608;2023-08-08T09:03:46;1.40;;;0.43;;
45540;SDS011;31265;49.680;8.608;2023-08-08T09:06:14;0.82;;;0.30;;
45540;SDS011;31265;49.680;8.608;2023-08-08T09:08:46;1.17;;;0.38;;
45540;SDS011;31265;49.680;8.608;2023-08-08T09:11:29;1.92;;;0.55;;
45540;SDS011;31265;49.680;8.608;2023-08-08T09:13:57;1.48;;;0.80;;
45540;SDS011;31265;49.680;8.608;2023-08-08T09:16:26;0.47;;;0.20;;
45540;SDS011;31265;49.680;8.608;2023-08-08T09:18:57;1.02;;;0.40;;
45540;SDS011;31265;49.680;8.608;2023-08-08T09:21:25;0.43;;;0.10;;
45540;SDS011;31265;49.680;8.608;2023-08-08T09:23:55;3.90;;;0.32;;
45540;SDS011;31265;49.680;8.608;2023-08-08T09:26:23;1.50;;;0.28;;
45540;SDS011;31265;49.680;8.608;2023-08-08T09:28:52;0.90;;;0.32;;
45540;SDS011;31265;49.680;8.608;2023-08-08T09:31:24;2.20;;;0.57;;
45540;SDS011;31265;49.680;8.608;2023-08-08T09:36:23;1.92;;;0.28;;
45540;SDS011;31265;49.680;8.608;2023-08-08T09:38:53;0.82;;;0.30;;
45540;SDS011;31265;49.680;8.608;2023-08-08T09:41:22;0.95;;;0.50;;
45540;SDS011;31265;49.680;8.608;2023-08-08T09:43:51;1.42;;;0.43;;
45540;SDS011;31265;49.680;8.608;2023-08-08T09:46:21;1.52;;;0.38;;
45540;SDS011;31265;49.680;8.608;2023-08-08T09:48:51;1.00;;;0.20;;
45540;SDS011;31265;49.680;8.608;2023-08-08T09:51:20;0.98;;;0.40;;
45540;SDS011;31265;49.680;8.608;2023-08-08T09:53:50;1.80;;;0.50;;
45540;SDS011;31265;49.680;8.608;2023-08-08T09:56:19;0.85;;;0.25;;
45540;SDS011;31265;49.680;8.608;2023-08-08T09:58:48;2.63;;;0.80;;
45540;SDS011;31265;49.680;8.608;2023-08-08T10:01:23;2.80;;;1.00;;
45540;SDS011;31265;49.680;8.608;2023-08-08T10:03:53;2.05;;;0.50;;
45540;SDS011;31265;49.680;8.608;2023-08-08T10:06:24;1.48;;;0.50;;
45540;SDS011;31265;49.680;8.608;2023-08-08T10:08:53;0.73;;;0.20;;
45540;SDS011;31265;49.680;8.608;2023-08-08T10:11:23;1.15;;;0.55;;
45540;SDS011;31265;49.680;8.608;2023-08-08T10:13:53;1.25;;;0.38;;
45540;SDS011;31265;49.680;8.608;2023-08-08T10:16:22;0.52;;;0.25;;
45540;SDS011;31265;49.680;8.608;2023-08-08T10:18:54;1.05;;;0.40;;
45540;SDS011;31265;49.680;8.608;2023-08-08T10:21:24;1.33;;;0.30;;
45540;SDS011;31265;49.680;8.608;2023-08-08T10:24:04;1.98;;;0.47;;
45540;SDS011;31265;49.680;8.608;2023-08-08T10:26:34;0.77;;;0.40;;
45540;SDS011;31265;49.680;8.608;2023-08-08T10:29:19;2.15;;;0.70;;
45540;SDS011;31265;49.680;8.608;2023-08-08T10:34:24;1.05;;;0.35;;
45540;SDS011;31265;49.680;8.608;2023-08-08T10:36:55;1.60;;;0.63;;
45540;SDS011;31265;49.680;8.608;2023-08-08T10:39:27;1.42;;;0.55;;
45540;SDS011;31265;49.680;8.608;2023-08-08T10:42:00;0.82;;;0.35;;
45540;SDS011;31265;49.680;8.608;2023-08-08T10:44:31;2.88;;;0.40;;
45540;SDS011;31265;49.680;8.608;2023-08-08T10:47:00;3.15;;;0.47;;
45540;SDS011;31265;49.680;8.608;2023-08-08T10:49:29;4.07;;;0.40;;
45540;SDS011;31265;49.680;8.608;2023-08-08T10:52:02;1.88;;;0.40;;
45540;SDS011;31265;49.680;8.608;2023-08-08T10:54:32;1.30;;;0.50;;
45540;SDS011;31265;49.680;8.608;2023-08-08T10:57:05;1.02;;;0.30;;
45540;SDS011;31265;49.680;8.608;2023-08-08T10:59:46;2.05;;;0.30;;
45540;SDS011;31265;49.680;8.608;2023-08-08T11:02:14;0.68;;;0.30;;
45540;SDS011;31265;49.680;8.608;2023-08-08T11:04:48;3.03;;;0.82;;
45540;SDS011;31265;49.680;8.608;2023-08-08T11:07:20;1.13;;;0.40;;
45540;SDS011;31265;49.680;8.608;2023-08-08T11:09:50;2.00;;;0.45;;
45540;SDS011;31265;49.680;8.608;2023-08-08T11:12:18;2.75;;;0.70;;
45540;SDS011;31265;49.680;8.608;2023-08-08T11:14:50;2.77;;;0.63;;
45540;SDS011;31265;49.680;8.608;2023-08-08T11:17:19;1.20;;;0.40;;
45540;SDS011;31265;49.680;8.608;2023-08-08T11:19:47;0.88;;;0.30;;
45540;SDS011;31265;49.680;8.608;2023-08-08T11:22:16;1.67;;;0.50;;
45540;SDS011;31265;49.680;8.608;2023-08-08T11:24:44;1.10;;;0.30;;
45540;SDS011;31265;49.680;8.608;2023-08-08T11:27:16;1.10;;;0.30;;
45540;SDS011;31265;49.680;8.608;2023-08-08T11:30:05;2.65;;;0.43;;
45540;SDS011;31265;49.680;8.608;2023-08-08T11:32:36;2.47;;;0.40;;
45540;SDS011;31265;49.680;8.608;2023-08-08T11:35:05;3.15;;;0.68;;
45540;SDS011;31265;49.680;8.608;2023-08-08T11:37:34;0.68;;;0.32;;
45540;SDS011;31265;49.680;8.608;2023-08-08T11:40:04;0.90;;;0.40;;
45540;SDS011;31265;49.680;8.608;2023-08-08T11:42:36;0.55;;;0.30;;
45540;SDS011;31265;49.680;8.608;2023-08-08T11:45:06;3.25;;;0.38;;
45540;SDS011;31265;49.680;8.608;2023-08-08T11:47:37;1.30;;;0.38;;
45540;SDS011;31265;49.680;8.608;2023-08-08T11:50:07;2.22;;;0.60;;
45540;SDS011;31265;49.680;8.608;2023-08-08T11:52:39;1.63;;;0.47;;
45540;SDS011;31265;49.680;8.608;2023-08-08T11:55:09;1.13;;;0.43;;
45540;SDS011;31265;49.680;8.608;2023-08-08T11:57:41;2.08;;;0.30;;
45540;SDS011;31265;49.680;8.608;2023-08-08T12:00:10;0.52;;;0.20;;
45540;SDS011;31265;49.680;8.608;2023-08-08T12:02:43;0.95;;;0.43;;
45540;SDS011;31265;49.680;8.608;2023-08-08T12:05:12;1.45;;;0.28;;
45540;SDS011;31265;49.680;8.608;2023-08-08T12:07:44;1.23;;;0.40;;
45540;SDS011;31265;49.680;8.608;2023-08-08T12:10:16;0.52;;;0.10;;
45540;SDS011;31265;49.680;8.608;2023-08-08T12:12:55;2.65;;;0.30;;
45540;SDS011;31265;49.680;8.608;2023-08-08T12:15:32;1.92;;;0.47;;
45540;SDS011;31265;49.680;8.608;2023-08-08T12:18:03;1.27;;;0.55;;
45540;SDS011;31265;49.680;8.608;2023-08-08T12:20:32;3.45;;;0.70;;
45540;SDS011;31265;49.680;8.608;2023-08-08T12:23:00;4.10;;;0.83;;
45540;SDS011;31265;49.680;8.608;2023-08-08T12:25:29;1.55;;;0.43;;
45540;SDS011;31265;49.680;8.608;2023-08-08T12:27:59;1.23;;;0.38;;
45540;SDS011;31265;49.680;8.608;2023-08-08T12:30:27;1.38;;;0.50;;
45540;SDS011;31265;49.680;8.608;2023-08-08T12:32:56;4.45;;;0.60;;
45540;SDS011;31265;49.680;8.608;2023-08-08T12:35:26;2.25;;;0.50;;
45540;SDS011;31265;49.680;8.608;2023-08-08T12:37:55;0.93;;;0.30;;
45540;SDS011;31265;49.680;8.608;2023-08-08T12:40:23;1.20;;;0.40;;
45540;SDS011;31265;49.680;8.608;2023-08-08T12:42:52;1.08;;;0.43;;
45540;SDS011;31265;49.680;8.608;2023-08-08T12:45:21;1.10;;;0.38;;
45540;SDS011;31265;49.680;8.608;2023-08-08T12:47:51;2.95;;;0.57;;
45540;SDS011;31265;49.680;8.608;2023-08-08T12:50:20;1.53;;;0.53;;
45540;SDS011;31265;49.680;8.608;2023-08-08T12:52:48;2.17;;;0.47;;
45540;SDS011;31265;49.680;8.608;2023-08-08T12:55:17;1.43;;;0.30;;
45540;SDS011;31265;49.680;8.608;2023-08-08T12:57:46;2.92;;;0.52;;
45540;SDS011;31265;49.680;8.608;2023-08-08T13:00:15;1.15;;;0.30;;
45540;SDS011;31265;49.680;8.608;2023-08-08T13:02:45;0.40;;;0.10;;
45540;SDS011;31265;49.680;8.608;2023-08-08T13:05:14;2.63;;;0.55;;
45540;SDS011;31265;49.680;8.608;2023-08-08T13:07:43;1.67;;;0.40;;
45540;SDS011;31265;49.680;8.608;2023-08-08T13:10:11;1.42;;;0.35;;
45540;SDS011;31265;49.680;8.608;2023-08-08T13:12:40;1.10;;;0.25;;
45540;SDS011;31265;49.680;8.608;2023-08-08T13:15:09;0.40;;;0.20;;
45540;SDS011;31265;49.680;8.608;2023-08-08T13:17:37;3.95;;;0.40;;
45540;SDS011;31265;49.680;8.608;2023-08-08T13:20:09;0.77;;;0.25;;
45540;SDS011;31265;49.680;8.608;2023-08-08T13:22:39;2.35;;;0.35;;
45540;SDS011;31265;49.680;8.608;2023-08-08T13:25:10;1.20;;;0.55;;
45540;SDS011;31265;49.680;8.608;2023-08-08T13:27:39;0.77;;;0.30;;
45540;SDS011;31265;49.680;8.608;2023-08-08T13:30:11;0.85;;;0.30;;
45540;SDS011;31265;49.680;8.608;2023-08-08T13:32:42;1.80;;;0.80;;
45540;SDS011;31265;49.680;8.608;2023-08-08T13:35:12;0.32;;;0.20;;
45540;SDS011;31265;49.680;8.608;2023-08-08T13:37:40;0.85;;;0.17;;
45540;SDS011;31265;49.680;8.608;2023-08-08T13:40:09;1.00;;;0.40;;
45540;SDS011;31265;49.680;8.608;2023-08-08T13:42:38;1.65;;;0.57;;
45540;SDS011;31265;49.680;8.608;2023-08-08T13:45:07;5.22;;;0.70;;
45540;SDS011;31265;49.680;8.608;2023-08-08T13:52:36;1.25;;;0.47;;
45540;SDS011;31265;49.680;8.608;2023-08-08T13:55:04;0.40;;;0.15;;
45540;SDS011;31265;49.680;8.608;2023-08-08T13:57:33;0.60;;;0.20;;
45540;SDS011;31265;49.680;8.608;2023-08-08T14:00:02;1.05;;;0.57;;
45540;SDS011;31265;49.680;8.608;2023-08-08T14:02:33;4.95;;;0.43;;
45540;SDS011;31265;49.680;8.608;2023-08-08T14:05:02;2.05;;;0.22;;
45540;SDS011;31265;49.680;8.608;2023-08-08T14:07:33;1.15;;;0.38;;
45540;SDS011;31265;49.680;8.608;2023-08-08T14:10:03;0.93;;;0.20;;
45540;SDS011;31265;49.680;8.608;2023-08-08T14:12:32;1.42;;;0.40;;
45540;SDS011;31265;49.680;8.608;2023-08-08T14:15:02;0.77;;;0.10;;
45540;SDS011;31265;49.680;8.608;2023-08-08T14:17:31;1.75;;;0.63;;
45540;SDS011;31265;49.680;8.608;2023-08-08T14:19:59;0.20;;;0.10;;
45540;SDS011;31265;49.680;8.608;2023-08-08T14:22:27;2.05;;;0.32;;
45540;SDS011;31265;49.680;8.608;2023-08-08T14:24:56;0.63;;;0.20;;
45540;SDS011;31265;49.680;8.608;2023-08-08T14:27:25;1.60;;;0.20;;
45540;SDS011;31265;49.680;8.608;2023-08-08T14:29:54;0.82;;;0.40;;
45540;SDS011;31265;49.680;8.608;2023-08-08T14:32:22;1.02;;;0.40;;
45540;SDS011;31265;49.680;8.608;2023-08-08T14:34:50;2.85;;;0.60;;
45540;SDS011;31265;49.680;8.608;2023-08-08T14:37:19;1.45;;;0.60;;
45540;SDS011;31265;49.680;8.608;2023-08-08T14:39:49;0.93;;;0.40;;
45540;SDS011;31265;49.680;8.608;2023-08-08T14:42:17;0.70;;;0.20;;
45540;SDS011;31265;49.680;8.608;2023-08-08T14:44:47;3.23;;;0.60;;
45540;SDS011;31265;49.680;8.608;2023-08-08T14:47:15;0.43;;;0.20;;
45540;SDS011;31265;49.680;8.608;2023-08-08T14:49:44;1.03;;;0.50;;
45540;SDS011;31265;49.680;8.608;2023-08-08T14:52:14;1.00;;;0.20;;
45540;SDS011;31265;49.680;8.608;2023-08-08T14:54:42;3.03;;;0.40;;
45540;SDS011;31265;49.680;8.608;2023-08-08T14:57:11;0.60;;;0.13;;
45540;SDS011;31265;49.680;8.608;2023-08-08T14:59:41;3.42;;;0.50;;
45540;SDS011;31265;49.680;8.608;2023-08-08T15:02:10;0.90;;;0.25;;
45540;SDS011;31265;49.680;8.608;2023-08-08T15:04:39;0.65;;;0.38;;
45540;SDS011;31265;49.680;8.608;2023-08-08T15:07:07;0.93;;;0.30;;
45540;SDS011;31265;49.680;8.608;2023-08-08T15:09:35;1.20;;;0.40;;
45540;SDS011;31265;49.680;8.608;2023-08-08T15:12:05;1.55;;;0.40;;
45540;SDS011;31265;49.680;8.608;2023-08-08T15:14:34;0.63;;;0.23;;
45540;SDS011;31265;49.680;8.608;2023-08-08T15:17:02;2.28;;;0.30;;
45540;SDS011;31265;49.680;8.608;2023-08-08T15:19:32;2.03;;;0.68;;
45540;SDS011;31265;49.680;8.608;2023-08-08T15:22:01;2.65;;;0.90;;
45540;SDS011;31265;49.680;8.608;2023-08-08T15:24:29;3.05;;;0.77;;
45540;SDS011;31265;49.680;8.608;2023-08-08T15:26:59;1.90;;;0.65;;
45540;SDS011;31265;49.680;8.608;2023-08-08T15:29:30;0.93;;;0.30;;
45540;SDS011;31265;49.680;8.608;2023-08-08T15:31:58;2.13;;;0.50;;
45540;SDS011;31265;49.680;8.608;2023-08-08T15:34:27;0.60;;;0.30;;
45540;SDS011;31265;49.680;8.608;2023-08-08T15:36:57;1.85;;;0.50;;
45540;SDS011;31265;49.680;8.608;2023-08-08T15:39:26;1.30;;;0.40;;